createdAt,value
2023-02-16T00:00:07.904Z,81.13
2023-02-16T00:02:10.462Z,81.36
2023-02-16T00:04:27.080Z,82.08
2023-02-16T00:06:29.462Z,81.73
2023-02-16T00:08:30.835Z,81.60
2023-02-16T00:10:36.199Z,81.56
2023-02-16T00:12:55.965Z,81.61
2023-02-16T00:14:58.126Z,81.85
2023-02-16T00:16:59.803Z,81.32
2023-02-16T00:19:01.819Z,82.32
2023-02-16T00:21:03.499Z,81.47
2023-02-16T00:23:05.033Z,81.67
2023-02-16T00:25:08.087Z,82.11
2023-02-16T00:27:13.965Z,81.61
2023-02-16T00:29:22.950Z,81.80
2023-02-16T00:31:31.725Z,82.44
2023-02-16T00:33:33.171Z,81.81
2023-02-16T00:35:34.559Z,81.54
2023-02-16T00:37:35.907Z,81.72
2023-02-16T00:39:38.467Z,81.68
2023-02-16T00:41:51.950Z,81.81
2023-02-16T00:43:54.848Z,82.92
2023-02-16T00:45:57.213Z,81.41
2023-02-16T00:47:58.845Z,82.71
2023-02-16T00:50:00.503Z,81.96
2023-02-16T00:52:02.121Z,81.69
2023-02-16T00:54:03.612Z,82.12
2023-02-16T00:56:05.416Z,82.62
2023-02-16T00:58:25.587Z,81.68
2023-02-16T01:00:31.640Z,82.31
2023-02-16T01:02:33.393Z,82.78
2023-02-16T01:04:35.021Z,82.87
2023-02-16T01:06:54.688Z,82.35
2023-02-16T01:09:29.504Z,81.98
2023-02-16T01:11:30.948Z,82.74
2023-02-16T01:13:35.537Z,82.70
2023-02-16T01:15:38.334Z,83.04
2023-02-16T01:17:40.281Z,83.39
2023-02-16T01:19:41.807Z,82.88
2023-02-16T01:21:43.327Z,83.51
2023-02-16T01:23:45.292Z,82.42
2023-02-16T01:25:46.790Z,82.89
2023-02-16T01:27:48.726Z,82.49
2023-02-16T01:29:50.124Z,82.32
2023-02-16T01:31:51.656Z,82.69
2023-02-16T01:33:53.099Z,82.98
2023-02-16T01:35:57.368Z,82.52
2023-02-16T01:37:58.788Z,82.00
2023-02-16T01:40:00.238Z,82.84
2023-02-16T01:42:13.586Z,83.28
2023-02-16T01:44:20.884Z,82.69
2023-02-16T01:46:44.954Z,82.76
2023-02-16T01:48:46.413Z,82.48
2023-02-16T01:51:12.095Z,83.58
2023-02-16T01:53:34.932Z,82.34
2023-02-16T01:55:44.329Z,83.38
2023-02-16T01:58:19.518Z,82.90
2023-02-16T02:00:52.233Z,82.92
2023-02-16T02:03:19.643Z,82.64
2023-02-16T02:05:37.489Z,82.63
2023-02-16T02:07:49.893Z,82.62
2023-02-16T02:10:10.077Z,82.57
2023-02-16T02:12:32.490Z,83.49
2023-02-16T02:14:38.597Z,83.16
2023-02-16T02:16:40.024Z,82.45
2023-02-16T02:18:41.449Z,82.92
2023-02-16T02:21:39.197Z,82.86
2023-02-16T02:24:21.980Z,83.12
2023-02-16T02:26:54.168Z,82.96
2023-02-16T02:29:27.502Z,82.63
2023-02-16T02:31:34.715Z,82.18
2023-02-16T02:34:10.363Z,82.40
2023-02-16T02:36:30.479Z,82.76
2023-02-16T02:38:50.449Z,82.97
2023-02-16T02:41:18.508Z,83.19
2023-02-16T02:43:37.509Z,83.20
2023-02-16T02:46:20.954Z,83.21
2023-02-16T02:48:22.437Z,83.92
2023-02-16T02:51:16.029Z,83.25
2023-02-16T02:53:17.428Z,84.19
2023-02-16T02:55:37.741Z,84.64
2023-02-16T02:58:08.230Z,83.10
2023-02-16T03:00:34.239Z,83.76
2023-02-16T03:02:38.005Z,83.30
2023-02-16T03:04:40.493Z,83.37
2023-02-16T03:06:47.218Z,84.40
2023-02-16T03:08:53.090Z,84.64
2023-02-16T03:11:17.988Z,84.96
2023-02-16T03:13:26.273Z,84.33
2023-02-16T03:15:30.119Z,83.11
2023-02-16T03:17:56.591Z,84.15
2023-02-16T03:20:19.532Z,84.23
2023-02-16T03:22:40.008Z,83.15
2023-02-16T03:25:00.299Z,83.77
2023-02-16T03:27:21.184Z,83.41
2023-02-16T03:29:24.697Z,84.28
2023-02-16T03:31:32.419Z,83.73
2023-02-16T03:33:34.942Z,83.88
2023-02-16T03:35:36.828Z,84.68
2023-02-16T03:37:40.465Z,83.75
2023-02-16T03:40:00.919Z,83.96
2023-02-16T03:42:02.547Z,84.28
2023-02-16T03:44:04.227Z,84.47
2023-02-16T03:46:05.718Z,83.95
2023-02-16T03:48:08.331Z,83.97
2023-02-16T03:50:10.207Z,84.35
2023-02-16T03:52:11.616Z,84.18
2023-02-16T03:54:13.032Z,84.02
2023-02-16T03:56:14.417Z,84.43
2023-02-16T03:58:19.312Z,84.34
2023-02-16T04:00:21.016Z,84.12
2023-02-16T04:02:22.459Z,84.50
2023-02-16T04:04:23.940Z,84.41
2023-02-16T04:06:25.356Z,85.46
2023-02-16T04:08:26.743Z,84.77
2023-02-16T04:10:28.531Z,83.89
2023-02-16T04:12:38.927Z,84.56
2023-02-16T04:14:43.250Z,84.58
2023-02-16T04:16:45.969Z,84.60
2023-02-16T04:18:47.503Z,84.58
2023-02-16T04:20:48.996Z,84.55
2023-02-16T04:22:50.778Z,85.22
2023-02-16T04:24:52.160Z,84.46
2023-02-16T04:26:53.572Z,84.18
2023-02-16T04:28:54.931Z,84.69
2023-02-16T04:30:56.424Z,84.11
2023-02-16T04:32:59.252Z,84.86
2023-02-16T04:35:00.724Z,84.21
2023-02-16T04:37:02.819Z,84.83
2023-02-16T04:39:04.423Z,84.32
2023-02-16T04:41:06.049Z,83.80
2023-02-16T04:43:07.659Z,84.26
2023-02-16T04:45:10.205Z,83.63
2023-02-16T04:47:11.884Z,84.23
2023-02-16T04:49:13.264Z,84.24
2023-02-16T04:51:14.678Z,84.56
2023-02-16T04:55:48.870Z,84.21
2023-02-16T04:57:50.428Z,83.34
2023-02-16T04:59:51.843Z,83.96
2023-02-16T05:01:53.403Z,84.51
2023-02-16T05:03:55.052Z,84.13
2023-02-16T05:05:56.458Z,84.40
2023-02-16T05:07:57.840Z,84.01
2023-02-16T05:09:59.414Z,83.99
2023-02-16T05:12:19.498Z,84.11
2023-02-16T05:14:43.045Z,83.87
2023-02-16T05:16:45.717Z,85.04
2023-02-16T05:18:47.116Z,84.21
2023-02-16T05:21:06.976Z,84.77
2023-02-16T05:23:08.383Z,84.17
2023-02-16T05:25:09.790Z,84.21
2023-02-16T05:27:14.479Z,84.27
2023-02-16T05:29:15.901Z,83.86
2023-02-16T05:31:17.424Z,84.46
2023-02-16T05:33:18.834Z,83.98
2023-02-16T05:35:20.226Z,84.18
2023-02-16T05:37:21.711Z,83.66
2023-02-16T05:39:23.167Z,83.49
2023-02-16T05:41:25.499Z,84.21
2023-02-16T05:43:26.908Z,83.81
2023-02-16T05:45:28.309Z,84.18
2023-02-16T05:47:29.672Z,83.68
2023-02-16T05:49:31.270Z,83.89
2023-02-16T05:51:32.951Z,83.66
2023-02-16T05:53:34.334Z,84.01
2023-02-16T05:55:35.840Z,83.75
2023-02-16T05:57:37.255Z,83.62
2023-02-16T05:59:38.871Z,84.14
2023-02-16T06:01:40.948Z,83.95
2023-02-16T06:03:42.776Z,84.10
2023-02-16T06:05:44.183Z,83.76
2023-02-16T06:07:45.575Z,83.64
2023-02-16T06:09:46.926Z,84.13
2023-02-16T06:11:48.332Z,83.43
2023-02-16T06:13:50.117Z,83.52
2023-02-16T06:15:54.038Z,84.11
2023-02-16T06:17:55.453Z,84.23
2023-02-16T06:19:56.807Z,83.10
2023-02-16T06:21:58.158Z,82.73
2023-02-16T06:23:59.713Z,83.49
2023-02-16T06:26:01.131Z,83.37
2023-02-16T06:28:03.004Z,83.64
2023-02-16T06:30:06.011Z,83.09
2023-02-16T06:32:07.556Z,83.07
2023-02-16T06:34:08.977Z,83.28
2023-02-16T06:36:11.064Z,83.13
2023-02-16T06:38:12.432Z,82.65
2023-02-16T06:40:14.611Z,82.29
2023-02-16T06:42:15.999Z,82.78
2023-02-16T06:44:17.451Z,82.60
2023-02-16T06:46:18.839Z,82.95
2023-02-16T06:48:20.457Z,82.14
2023-02-16T06:50:21.833Z,82.49
2023-02-16T06:52:23.218Z,82.00
2023-02-16T06:54:24.595Z,82.36
2023-02-16T06:56:26.141Z,82.32
2023-02-16T06:58:27.522Z,81.75
2023-02-16T07:00:29.826Z,82.02
2023-02-16T07:02:31.263Z,81.59
2023-02-16T07:04:32.692Z,82.10
2023-02-16T07:06:34.197Z,81.33
2023-02-16T07:08:35.985Z,80.54
2023-02-16T07:10:49.010Z,80.58
2023-02-16T07:12:51.334Z,80.66
2023-02-16T07:14:52.749Z,80.81
2023-02-16T07:16:54.097Z,80.80
2023-02-16T07:18:55.495Z,80.60
2023-02-16T07:20:56.935Z,80.13
2023-02-16T07:22:58.316Z,80.52
2023-02-16T07:25:00.624Z,80.55
2023-02-16T07:27:02.077Z,79.88
2023-02-16T07:29:04.026Z,78.76
2023-02-16T07:31:16.462Z,78.65
2023-02-16T07:33:18.573Z,79.21
2023-02-16T07:35:20.158Z,78.25
2023-02-16T07:37:21.561Z,78.90
2023-02-16T07:39:23.171Z,78.83
2023-02-16T07:41:24.562Z,79.37
2023-02-16T07:43:26.317Z,78.07
2023-02-16T07:45:28.208Z,77.83
2023-02-16T07:47:29.832Z,77.93
2023-02-16T07:49:31.212Z,79.10
2023-02-16T07:51:33.007Z,77.49
2023-02-16T07:53:34.544Z,77.06
2023-02-16T07:55:40.621Z,77.16
2023-02-16T07:57:42.002Z,76.64
2023-02-16T07:59:43.369Z,76.17
2023-02-16T08:01:44.826Z,76.28
2023-02-16T08:03:46.291Z,76.36
2023-02-16T08:05:47.654Z,75.57
2023-02-16T08:07:49.366Z,75.49
2023-02-16T08:09:50.827Z,75.43
2023-02-16T08:11:52.221Z,75.52
2023-02-16T08:13:53.680Z,75.57
2023-02-16T08:15:55.037Z,74.11
2023-02-16T08:17:56.410Z,74.80
2023-02-16T08:19:57.792Z,74.56
2023-02-16T08:22:02.232Z,74.67
2023-02-16T08:24:06.939Z,74.05
2023-02-16T08:26:10.487Z,74.22
2023-02-16T08:28:14.680Z,73.66
2023-02-16T08:30:17.969Z,73.19
2023-02-16T08:32:20.107Z,72.63
2023-02-16T08:34:22.049Z,73.52
2023-02-16T08:36:34.820Z,72.36
2023-02-16T08:38:36.429Z,72.21
2023-02-16T08:40:37.834Z,72.77
2023-02-16T08:42:39.229Z,72.86
2023-02-16T08:44:42.284Z,72.71
2023-02-16T08:46:45.842Z,73.35
2023-02-16T08:48:47.421Z,71.50
2023-02-16T08:50:55.082Z,72.38
2023-02-16T08:52:58.176Z,72.91
2023-02-16T08:54:59.758Z,71.66
2023-02-16T08:57:02.880Z,71.03
2023-02-16T08:59:04.307Z,70.90
2023-02-16T09:01:08.125Z,71.08
2023-02-16T09:03:09.518Z,72.20
2023-02-16T09:05:10.875Z,70.81
2023-02-16T09:07:13.721Z,70.04
2023-02-16T09:09:15.823Z,71.32
2023-02-16T09:11:17.221Z,70.13
2023-02-16T09:13:18.710Z,69.82
2023-02-16T09:15:20.674Z,70.86
2023-02-16T09:17:22.049Z,69.19
2023-02-16T09:19:24.542Z,70.67
2023-02-16T09:21:25.930Z,71.52
2023-02-16T09:23:27.297Z,70.69
2023-02-16T09:25:28.760Z,69.72
2023-02-16T09:27:30.147Z,69.47
2023-02-16T09:29:31.512Z,68.97
2023-02-16T09:31:37.017Z,69.72
2023-02-16T09:33:40.192Z,69.83
2023-02-16T09:35:41.652Z,68.74
2023-02-16T09:37:43.009Z,70.08
2023-02-16T09:39:44.384Z,68.83
2023-02-16T09:42:08.936Z,68.42
2023-02-16T09:44:48.265Z,69.25
2023-02-16T09:46:50.663Z,68.87
2023-02-16T09:48:53.129Z,69.23
2023-02-16T09:50:55.110Z,67.59
2023-02-16T09:53:06.452Z,67.61
2023-02-16T09:55:13.416Z,68.22
2023-02-16T09:57:48.944Z,67.91
2023-02-16T10:00:06.492Z,66.38
2023-02-16T10:02:32.805Z,67.17
2023-02-16T10:05:02.026Z,66.90
2023-02-16T10:07:41.677Z,66.35
2023-02-16T10:09:48.804Z,65.34
2023-02-16T10:11:56.407Z,66.89
2023-02-16T10:14:04.902Z,66.26
2023-02-16T10:16:13.740Z,65.64
2023-02-16T10:18:33.422Z,67.46
2023-02-16T10:20:37.140Z,65.63
2023-02-16T10:22:53.475Z,66.73
2023-02-16T10:25:02.330Z,64.84
2023-02-16T10:27:10.826Z,66.28
2023-02-16T10:29:23.200Z,65.20
2023-02-16T10:31:44.296Z,65.08
2023-02-16T10:34:09.036Z,63.03
2023-02-16T10:37:02.375Z,65.08
2023-02-16T10:39:16.151Z,63.93
2023-02-16T10:41:36.949Z,62.02
2023-02-16T10:43:51.703Z,63.16
2023-02-16T10:45:56.212Z,62.40
2023-02-16T10:47:57.914Z,64.00
2023-02-16T10:49:59.396Z,63.46
2023-02-16T10:52:02.706Z,63.95
2023-02-16T10:54:33.290Z,64.07
2023-02-16T10:57:04.116Z,64.31
2023-02-16T10:59:13.904Z,64.90
2023-02-16T11:01:21.672Z,65.08
2023-02-16T11:03:28.477Z,65.41
2023-02-16T11:05:34.942Z,64.78
2023-02-16T11:07:52.727Z,65.07
2023-02-16T11:09:57.222Z,65.60
2023-02-16T11:11:59.360Z,65.35
2023-02-16T11:14:09.057Z,65.30
2023-02-16T11:16:19.255Z,65.42
2023-02-16T11:18:42.448Z,65.29
2023-02-16T11:20:47.622Z,65.41
2023-02-16T11:22:49.036Z,64.92
2023-02-16T11:24:50.611Z,65.19
2023-02-16T11:27:20.124Z,65.13
2023-02-16T11:29:21.620Z,64.67
2023-02-16T11:31:37.149Z,64.85
2023-02-16T11:33:40.802Z,65.25
2023-02-16T11:35:43.516Z,64.87
2023-02-16T11:37:44.941Z,64.46
2023-02-16T11:39:53.355Z,65.33
2023-02-16T11:42:04.607Z,64.88
2023-02-16T11:44:22.424Z,65.45
2023-02-16T11:46:24.581Z,65.46
2023-02-16T11:48:29.555Z,65.11
2023-02-16T11:50:35.097Z,66.22
2023-02-16T11:52:36.865Z,65.07
2023-02-16T11:54:48.480Z,65.17
2023-02-16T11:57:05.179Z,65.21
2023-02-16T11:59:21.708Z,64.55
2023-02-16T12:01:46.987Z,65.26
2023-02-16T12:04:08.038Z,64.56
2023-02-16T12:06:21.470Z,66.22
2023-02-16T12:08:37.055Z,65.19
2023-02-16T12:11:16.512Z,65.10
2023-02-16T12:13:39.023Z,65.73
2023-02-16T12:15:52.823Z,65.45
2023-02-16T12:18:31.475Z,65.69
2023-02-16T12:20:58.879Z,65.59
2023-02-16T12:23:23.464Z,66.58
2023-02-16T12:25:38.047Z,67.55
2023-02-16T12:27:50.021Z,66.99
2023-02-16T12:30:20.868Z,67.82
2023-02-16T12:32:34.719Z,68.94
2023-02-16T12:35:07.726Z,68.73
2023-02-16T12:37:51.390Z,69.79
2023-02-16T12:40:12.623Z,69.99
2023-02-16T12:42:45.960Z,70.32
2023-02-16T12:45:03.372Z,70.91
2023-02-16T12:47:14.176Z,72.70
2023-02-16T12:49:27.410Z,72.62
2023-02-16T12:51:32.605Z,72.99
2023-02-16T12:53:42.071Z,73.02
2023-02-16T12:55:51.835Z,74.34
2023-02-16T12:58:04.220Z,73.77
2023-02-16T13:00:21.512Z,73.99
2023-02-16T13:02:42.597Z,74.24
2023-02-16T13:04:50.379Z,74.41
2023-02-16T13:07:22.732Z,73.55
2023-02-16T13:09:36.012Z,74.26
2023-02-16T13:11:49.173Z,72.89
2023-02-16T13:13:53.354Z,72.18
2023-02-16T13:16:04.005Z,72.84
2023-02-16T13:18:31.735Z,72.87
2023-02-16T13:20:33.334Z,72.65
2023-02-16T13:22:54.828Z,72.06
2023-02-16T13:25:23.026Z,72.28
2023-02-16T13:27:55.264Z,72.83
2023-02-16T13:30:04.402Z,72.31
2023-02-16T13:32:14.858Z,71.55
2023-02-16T13:34:26.760Z,72.27
2023-02-16T13:36:42.241Z,71.52
2023-02-16T13:39:11.189Z,72.04
2023-02-16T13:41:42.138Z,70.74
2023-02-16T13:43:52.659Z,71.33
2023-02-16T13:45:54.761Z,72.06
2023-02-16T13:47:57.813Z,71.87
2023-02-16T13:50:09.038Z,71.36
2023-02-16T13:52:32.008Z,71.02
2023-02-16T13:54:36.528Z,70.56
2023-02-16T13:56:38.233Z,71.31
2023-02-16T13:58:40.757Z,70.62
2023-02-16T14:00:45.172Z,69.88
2023-02-16T14:02:56.295Z,71.13
2023-02-16T14:04:57.872Z,70.24
2023-02-16T14:07:07.165Z,69.84
2023-02-16T14:09:14.690Z,68.99
2023-02-16T14:11:16.555Z,69.74
2023-02-16T14:13:18.232Z,70.90
2023-02-16T14:15:21.324Z,70.24
2023-02-16T14:17:28.950Z,70.73
2023-02-16T14:19:31.010Z,70.63
2023-02-16T14:21:45.954Z,70.79
2023-02-16T14:23:55.353Z,70.05
2023-02-16T14:26:08.009Z,71.24
2023-02-16T14:28:21.438Z,70.80
2023-02-16T14:31:07.606Z,70.18
2023-02-16T14:33:12.081Z,70.59
2023-02-16T14:35:17.003Z,70.61
2023-02-16T14:37:18.332Z,70.32
2023-02-16T14:39:22.858Z,70.74
2023-02-16T14:41:33.746Z,70.83
2023-02-16T14:43:45.245Z,70.98
2023-02-16T14:46:17.725Z,71.60
2023-02-16T14:48:35.821Z,71.05
2023-02-16T14:51:14.680Z,70.45
2023-02-16T14:53:55.154Z,71.61
2023-02-16T14:56:12.532Z,71.37
2023-02-16T14:58:32.418Z,71.16
2023-02-16T15:00:46.333Z,71.06
2023-02-16T15:03:01.992Z,70.84
2023-02-16T15:05:21.317Z,71.24
2023-02-16T15:07:24.505Z,70.51
2023-02-16T15:09:31.113Z,71.19
2023-02-16T15:11:56.885Z,70.92
2023-02-16T15:14:09.271Z,71.31
2023-02-16T15:16:15.285Z,71.43
2023-02-16T15:18:23.759Z,70.51
2023-02-16T15:20:37.712Z,71.64
2023-02-16T15:22:44.215Z,71.07
2023-02-16T15:24:55.956Z,69.84
2023-02-16T15:27:01.442Z,68.58
2023-02-16T15:29:22.675Z,68.35
2023-02-16T15:31:36.917Z,68.22
2023-02-16T15:33:41.666Z,68.02
2023-02-16T15:35:46.686Z,68.07
2023-02-16T15:37:48.496Z,67.37
2023-02-16T15:40:08.658Z,67.65
2023-02-16T15:42:20.834Z,67.63
2023-02-16T15:44:36.150Z,68.18
2023-02-16T15:46:40.415Z,67.87
2023-02-16T15:48:41.852Z,68.76
2023-02-16T15:50:45.052Z,68.33
2023-02-16T15:52:47.652Z,68.11
2023-02-16T15:54:50.194Z,68.28
2023-02-16T15:56:54.161Z,68.59
2023-02-16T15:58:57.983Z,69.59
2023-02-16T16:01:00.435Z,69.35
2023-02-16T16:03:01.987Z,69.01
2023-02-16T16:05:06.730Z,69.49
2023-02-16T16:07:12.911Z,69.61
2023-02-16T16:09:22.535Z,69.88
2023-02-16T16:11:23.996Z,69.96
2023-02-16T16:13:29.274Z,70.25
2023-02-16T16:15:37.247Z,70.82
2023-02-16T16:17:39.703Z,70.68
2023-02-16T16:19:41.651Z,70.69
2023-02-16T16:21:51.795Z,70.67
2023-02-16T16:23:59.663Z,71.48
2023-02-16T16:26:01.082Z,70.98
2023-02-16T16:28:08.518Z,72.18
2023-02-16T16:30:28.516Z,71.86
2023-02-16T16:32:29.936Z,71.38
2023-02-16T16:34:40.155Z,72.25
2023-02-16T16:36:55.901Z,72.46
2023-02-16T16:39:16.100Z,72.20
2023-02-16T16:41:27.645Z,72.49
2023-02-16T16:43:35.154Z,72.85
2023-02-16T16:45:40.653Z,72.98
2023-02-16T16:47:50.262Z,72.86
2023-02-16T16:49:53.885Z,72.73
2023-02-16T16:51:55.276Z,73.48
2023-02-16T16:54:03.893Z,73.08
2023-02-16T16:56:13.640Z,73.05
2023-02-16T16:58:15.018Z,72.84
2023-02-16T17:00:18.353Z,73.03
2023-02-16T17:02:19.848Z,73.39
2023-02-16T17:04:22.022Z,73.48
2023-02-16T17:06:24.300Z,73.45
2023-02-16T17:08:25.677Z,73.27
2023-02-16T17:10:27.713Z,73.93
2023-02-16T17:12:29.531Z,73.65
2023-02-16T17:14:30.966Z,73.63
2023-02-16T17:16:37.158Z,73.49
2023-02-16T17:18:39.555Z,73.67
2023-02-16T17:20:40.962Z,73.36
2023-02-16T17:22:42.331Z,73.16
2023-02-16T17:24:44.018Z,73.18
2023-02-16T17:26:45.488Z,73.68
2023-02-16T17:28:46.900Z,73.23
2023-02-16T17:30:48.407Z,74.04
2023-02-16T17:32:49.782Z,73.62
2023-02-16T17:34:51.167Z,73.93
2023-02-16T17:36:52.556Z,73.72
2023-02-16T17:38:54.252Z,72.89
2023-02-16T17:40:57.105Z,72.90
2023-02-16T17:42:58.504Z,73.13
2023-02-16T17:45:00.084Z,73.79
2023-02-16T17:47:01.529Z,72.77
2023-02-16T17:49:02.897Z,73.04
2023-02-16T17:51:04.831Z,73.14
2023-02-16T17:53:12.182Z,72.78
2023-02-16T17:55:13.665Z,73.46
2023-02-16T17:57:15.083Z,73.17
2023-02-16T17:59:17.598Z,73.20
2023-02-16T18:01:19.975Z,72.82
2023-02-16T18:03:22.870Z,73.47
2023-02-16T18:05:24.274Z,72.74
2023-02-16T18:07:25.938Z,73.06
2023-02-16T18:09:27.323Z,73.39
2023-02-16T18:11:28.698Z,72.86
2023-02-16T18:13:31.265Z,73.35
2023-02-16T18:15:33.365Z,73.29
2023-02-16T18:17:34.843Z,73.04
2023-02-16T18:19:36.250Z,73.11
2023-02-16T18:21:37.634Z,72.64
2023-02-16T18:23:39.184Z,72.78
2023-02-16T18:25:42.954Z,73.63
2023-02-16T18:27:44.665Z,73.35
2023-02-16T18:29:46.037Z,73.23
2023-02-16T18:31:47.674Z,73.28
2023-02-16T18:33:49.066Z,73.56
2023-02-16T18:35:52.074Z,73.22
2023-02-16T18:37:54.315Z,73.81
2023-02-16T18:39:55.963Z,73.75
2023-02-16T18:41:57.378Z,75.26
2023-02-16T18:43:58.818Z,76.25
2023-02-16T18:46:05.458Z,76.71
2023-02-16T18:48:07.080Z,77.18
2023-02-16T18:50:08.827Z,77.49
2023-02-16T18:52:10.706Z,77.15
2023-02-16T18:54:12.093Z,76.91
2023-02-16T18:56:13.556Z,77.54
2023-02-16T18:58:15.069Z,77.27
2023-02-16T19:00:17.216Z,77.26
2023-02-16T19:02:18.636Z,77.03
2023-02-16T19:04:20.145Z,77.52
2023-02-16T19:06:21.886Z,77.23
2023-02-16T19:08:23.248Z,76.97
2023-02-16T19:10:25.122Z,77.54
2023-02-16T19:12:26.675Z,76.58
2023-02-16T19:14:28.116Z,76.52
2023-02-16T19:16:29.724Z,77.68
2023-02-16T19:18:32.003Z,76.82
2023-02-16T19:20:33.395Z,76.76
2023-02-16T19:22:37.150Z,76.91
2023-02-16T19:24:38.694Z,76.73
2023-02-16T19:26:40.624Z,77.59
2023-02-16T19:28:43.152Z,77.62
2023-02-16T19:30:44.558Z,77.68
2023-02-16T19:32:45.948Z,77.55
2023-02-16T19:34:47.330Z,77.80
2023-02-16T19:36:48.691Z,78.25
2023-02-16T19:38:50.284Z,78.49
2023-02-16T19:40:51.680Z,78.81
2023-02-16T19:42:53.046Z,78.58
2023-02-16T19:44:54.435Z,79.23
2023-02-16T19:46:56.430Z,79.24
2023-02-16T19:48:58.748Z,79.91
2023-02-16T19:51:02.077Z,79.49
2023-02-16T19:53:03.829Z,80.22
2023-02-16T19:55:05.472Z,80.23
2023-02-16T19:57:07.148Z,79.78
2023-02-16T19:59:09.825Z,80.32
2023-02-16T20:01:17.404Z,79.86
2023-02-16T20:03:19.260Z,81.23
2023-02-16T20:05:20.686Z,82.03
2023-02-16T20:07:22.044Z,82.46
2023-02-16T20:09:24.512Z,83.61
2023-02-16T20:11:28.862Z,83.28
2023-02-16T20:13:30.667Z,83.80
2023-02-16T20:15:32.177Z,84.52
2023-02-16T20:17:33.798Z,84.33
2023-02-16T20:19:35.169Z,85.12
2023-02-16T20:21:36.686Z,85.26
2023-02-16T20:23:38.435Z,85.75
2023-02-16T20:25:40.135Z,86.48
2023-02-16T20:27:41.653Z,86.30
2023-02-16T20:29:43.047Z,86.43
2023-02-16T20:31:55.646Z,86.83
2023-02-16T20:33:58.061Z,86.96
2023-02-16T20:35:59.456Z,87.08
2023-02-16T20:38:00.822Z,86.71
2023-02-16T20:40:02.235Z,87.40
2023-02-16T20:42:03.835Z,87.36
2023-02-16T20:44:05.434Z,87.89
2023-02-16T20:46:08.114Z,87.88
2023-02-16T20:48:10.122Z,87.75
2023-02-16T20:50:11.563Z,88.14
2023-02-16T20:52:13.300Z,88.35
2023-02-16T20:54:14.634Z,88.42
2023-02-16T20:56:18.391Z,88.49
2023-02-16T20:58:20.670Z,88.49
2023-02-16T21:00:24.004Z,88.92
2023-02-16T21:02:25.774Z,88.91
2023-02-16T21:04:27.316Z,88.58
2023-02-16T21:06:29.404Z,89.07
2023-02-16T21:08:30.896Z,89.10
2023-02-16T21:10:32.292Z,89.19
2023-02-16T21:12:33.658Z,90.08
2023-02-16T21:14:35.243Z,89.32
2023-02-16T21:16:36.933Z,90.14
2023-02-16T21:18:40.491Z,89.95
2023-02-16T21:20:43.055Z,89.60
2023-02-16T21:22:44.471Z,89.19
2023-02-16T21:24:45.843Z,89.63
2023-02-16T21:26:47.339Z,89.84
2023-02-16T21:28:49.472Z,89.62
2023-02-16T21:30:51.031Z,89.32
2023-02-16T21:32:52.466Z,89.97
2023-02-16T21:34:54.313Z,90.29
2023-02-16T21:36:55.772Z,90.37
2023-02-16T21:38:57.189Z,89.99
2023-02-16T21:41:24.968Z,90.27
2023-02-16T21:43:26.512Z,90.73
2023-02-16T21:45:27.930Z,90.62
2023-02-16T21:47:48.367Z,90.31
2023-02-16T21:49:49.754Z,90.97
2023-02-16T21:51:51.118Z,90.81
2023-02-16T21:53:56.083Z,90.79
2023-02-16T21:56:16.110Z,90.54
2023-02-16T22:00:43.992Z,91.44
2023-02-16T22:02:45.396Z,91.33
2023-02-16T22:04:48.214Z,91.24
2023-02-16T22:06:50.972Z,91.08
2023-02-16T22:08:52.978Z,91.06
2023-02-16T22:10:54.371Z,90.98
2023-02-16T22:12:56.881Z,91.13
2023-02-16T22:17:24.057Z,91.22
2023-02-16T22:19:25.454Z,91.57
2023-02-16T22:21:27.680Z,91.51
2023-02-16T22:23:29.106Z,91.19
2023-02-16T22:25:30.529Z,91.22
2023-02-16T22:27:31.931Z,91.56
2023-02-16T22:29:33.479Z,91.54
2023-02-16T22:31:36.628Z,91.77
2023-02-16T22:33:38.276Z,91.96
2023-02-16T22:35:39.799Z,91.59
2023-02-16T22:37:41.469Z,91.55
2023-02-16T22:39:43.006Z,91.47
2023-02-16T22:41:44.719Z,91.28
2023-02-16T22:43:46.560Z,91.92
2023-02-16T22:45:48.152Z,91.46
2023-02-16T22:47:49.728Z,92.00
2023-02-16T22:49:51.629Z,92.06
2023-02-16T22:51:53.283Z,91.77
2023-02-16T22:53:55.802Z,91.70
2023-02-16T22:55:57.514Z,92.29
2023-02-16T22:57:59.224Z,91.90
2023-02-16T23:00:00.875Z,92.27
2023-02-16T23:02:02.552Z,92.62
2023-02-16T23:04:04.066Z,92.22
2023-02-16T23:06:23.255Z,92.27
2023-02-16T23:08:24.637Z,92.45
2023-02-16T23:10:25.978Z,91.99
2023-02-16T23:12:27.856Z,92.41
2023-02-16T23:14:29.519Z,92.27
2023-02-16T23:16:31.715Z,92.15
2023-02-16T23:18:33.442Z,93.07
2023-02-16T23:20:34.846Z,92.14
2023-02-16T23:22:36.357Z,92.45
2023-02-16T23:24:40.095Z,92.62
2023-02-16T23:26:41.980Z,92.47
2023-02-16T23:28:44.394Z,92.28
2023-02-16T23:30:46.928Z,92.49
2023-02-16T23:32:48.702Z,92.96
2023-02-16T23:34:50.224Z,92.53
2023-02-16T23:36:51.708Z,92.65
2023-02-16T23:38:53.093Z,92.49
2023-02-16T23:41:05.850Z,92.36
2023-02-16T23:43:07.703Z,92.51
2023-02-16T23:45:09.261Z,92.55
2023-02-16T23:47:10.663Z,92.80
2023-02-16T23:49:12.130Z,93.23
2023-02-16T23:51:13.671Z,93.03
2023-02-16T23:53:15.162Z,92.72
2023-02-16T23:55:17.072Z,92.64
2023-02-16T23:57:18.490Z,92.67
2023-02-16T23:59:19.831Z,92.14
